Time;durP1;ratioP1;P1;durP2;ratioP2;P2;SDS_P1;SDS_P2;PMS_P1;PMS_P2;Temp;Humidity;BMP_temperature;BMP_pressure;BME280_temperature;BME280_humidity;BME280_pressure;Samples;Min_cycle;Max_cycle;Signal;HPM_P1;HPM_P2
2021/07/18 00:00:26;;;;;;;4.97;4.20;;;;;;;;;;4974544;28;20034;-71
2021/07/18 00:02:52;;;;;;;6.15;4.28;;;;;;;;;;4974176;28;20033;-72
2021/07/18 00:05:18;;;;;;;7.38;4.68;;;;;;;;;;4973417;28;20039;-69
2021/07/18 00:07:44;;;;;;;6.53;4.43;;;;;;;;;;4975087;28;20097;-73
2021/07/18 00:10:11;;;;;;;6.75;5.38;;;;;;;;;;4974069;28;20031;-71
2021/07/18 00:12:37;;;;;;;5.95;4.30;;;;;;;;;;4974249;28;20485;-71
2021/07/18 00:15:04;;;;;;;6.20;5.00;;;;;;;;;;4973898;28;20031;-69
2021/07/18 00:17:36;;;;;;;7.53;5.30;;;;;;;;;;4974683;28;20034;-69
2021/07/18 00:20:03;;;;;;;7.80;5.50;;;;;;;;;;4974358;28;20389;-73
2021/07/18 00:22:29;;;;;;;8.57;5.90;;;;;;;;;;4973277;28;20560;-69
2021/07/18 00:24:55;;;;;;;9.32;5.80;;;;;;;;;;4975373;28;20495;-73
2021/07/18 00:27:21;;;;;;;10.43;6.07;;;;;;;;;;4973369;28;20026;-76
2021/07/18 00:29:47;;;;;;;6.68;5.60;;;;;;;;;;4976531;28;20027;-72
2021/07/18 00:32:13;;;;;;;9.60;6.05;;;;;;;;;;4975225;28;20027;-69
2021/07/18 00:34:39;;;;;;;8.40;5.55;;;;;;;;;;4967723;28;20399;-72
2021/07/18 00:37:05;;;;;;;7.65;5.53;;;;;;;;;;4974470;28;20038;-73
2021/07/18 00:39:31;;;;;;;5.95;4.90;;;;;;;;;;4971327;28;20061;-74
2021/07/18 00:41:57;;;;;;;7.65;5.20;;;;;;;;;;4975207;28;20109;-69
2021/07/18 00:44:23;;;;;;;8.25;5.20;;;;;;;;;;4974390;28;20070;-70
2021/07/18 00:46:49;;;;;;;7.43;5.05;;;;;;;;;;4973757;28;20034;-73
2021/07/18 00:49:15;;;;;;;7.93;5.30;;;;;;;;;;4973224;28;20110;-69
2021/07/18 00:51:41;;;;;;;8.27;5.10;;;;;;;;;;4975076;28;20078;-74
2021/07/18 00:54:08;;;;;;;7.15;5.53;;;;;;;;;;4970492;28;20034;-69
2021/07/18 00:56:34;;;;;;;6.75;5.35;;;;;;;;;;4972962;28;20034;-72
2021/07/18 00:59:00;;;;;;;5.90;5.20;;;;;;;;;;4974651;28;20029;-69
2021/07/18 01:01:27;;;;;;;5.95;5.05;;;;;;;;;;4973997;28;20037;-70
2021/07/18 01:03:54;;;;;;;7.85;5.47;;;;;;;;;;4973340;28;20057;-72
2021/07/18 01:06:24;;;;;;;6.75;5.15;;;;;;;;;;4973516;28;20030;-69
2021/07/18 01:08:50;;;;;;;8.18;5.85;;;;;;;;;;4971960;28;20042;-71
2021/07/18 01:11:16;;;;;;;14.00;6.25;;;;;;;;;;4965046;28;21631;-69
2021/07/18 01:13:43;;;;;;;10.68;7.05;;;;;;;;;;4966754;28;20029;-72
2021/07/18 01:16:09;;;;;;;9.60;6.65;;;;;;;;;;4969099;28;20042;-69
2021/07/18 01:18:35;;;;;;;8.57;7.00;;;;;;;;;;4973130;28;20042;-71
2021/07/18 01:21:01;;;;;;;13.48;6.88;;;;;;;;;;4973600;28;20089;-71
2021/07/18 01:23:27;;;;;;;8.82;6.53;;;;;;;;;;4967132;28;20034;-72
2021/07/18 01:25:54;;;;;;;7.63;5.10;;;;;;;;;;4972278;28;20061;-71
2021/07/18 01:28:25;;;;;;;7.47;5.85;;;;;;;;;;4970157;28;20031;-72
2021/07/18 01:30:51;;;;;;;8.82;5.15;;;;;;;;;;4972206;28;20030;-71
2021/07/18 01:33:19;;;;;;;7.30;5.20;;;;;;;;;;4973201;28;20097;-69
2021/07/18 01:35:46;;;;;;;7.45;4.90;;;;;;;;;;4972415;28;20186;-71
2021/07/18 01:38:13;;;;;;;7.65;5.25;;;;;;;;;;4972514;28;20111;-72
2021/07/18 01:40:41;;;;;;;8.60;5.50;;;;;;;;;;4969938;28;20035;-71
2021/07/18 01:43:08;;;;;;;6.55;5.22;;;;;;;;;;4959041;28;21821;-69
2021/07/18 01:45:36;;;;;;;7.65;5.47;;;;;;;;;;4964545;28;20114;-70
2021/07/18 01:48:02;;;;;;;10.55;5.20;;;;;;;;;;4979340;28;20420;-71
2021/07/18 01:50:28;;;;;;;7.97;5.18;;;;;;;;;;4971621;28;20022;-72
2021/07/18 01:52:54;;;;;;;7.22;5.20;;;;;;;;;;4970465;28;20030;-70
2021/07/18 01:55:22;;;;;;;6.20;5.07;;;;;;;;;;4971951;28;20050;-72
2021/07/18 01:57:48;;;;;;;8.35;5.35;;;;;;;;;;4968753;28;20504;-73
2021/07/18 02:00:15;;;;;;;6.72;5.50;;;;;;;;;;4971162;28;20027;-68
2021/07/18 02:02:44;;;;;;;9.55;5.43;;;;;;;;;;4972536;28;20034;-73
2021/07/18 02:05:11;;;;;;;6.68;5.72;;;;;;;;;;4971521;28;20043;-73
2021/07/18 02:07:37;;;;;;;11.43;6.35;;;;;;;;;;4972134;28;20098;-69
2021/07/18 02:10:03;;;;;;;8.10;6.20;;;;;;;;;;4970672;28;20034;-69
2021/07/18 02:12:32;;;;;;;8.63;6.00;;;;;;;;;;4972060;28;20552;-71
2021/07/18 02:14:58;;;;;;;10.85;6.45;;;;;;;;;;4969086;28;20031;-69
2021/07/18 02:17:25;;;;;;;9.23;6.28;;;;;;;;;;4972521;28;20096;-69
2021/07/18 02:19:51;;;;;;;10.88;6.40;;;;;;;;;;4971530;28;20026;-71
2021/07/18 02:22:23;;;;;;;10.00;6.97;;;;;;;;;;4971616;28;20484;-70
2021/07/18 02:24:49;;;;;;;9.63;6.35;;;;;;;;;;4972099;28;20041;-71
2021/07/18 02:27:16;;;;;;;8.90;6.75;;;;;;;;;;4972875;28;20027;-69
2021/07/18 02:29:42;;;;;;;9.48;7.28;;;;;;;;;;4968084;28;20127;-73
2021/07/18 02:32:08;;;;;;;9.68;7.93;;;;;;;;;;4972814;28;20031;-68
2021/07/18 02:34:34;;;;;;;10.43;8.15;;;;;;;;;;4970644;28;20034;-72
2021/07/18 02:37:00;;;;;;;12.00;8.45;;;;;;;;;;4972727;28;20512;-69
2021/07/18 02:39:26;;;;;;;11.15;9.50;;;;;;;;;;4968268;28;20031;-71
2021/07/18 02:41:52;;;;;;;13.15;10.02;;;;;;;;;;4965910;28;20031;-70
2021/07/18 02:44:18;;;;;;;16.23;10.88;;;;;;;;;;4971475;28;20468;-69
2021/07/18 02:46:44;;;;;;;16.35;11.38;;;;;;;;;;4971610;28;20436;-72
2021/07/18 02:49:10;;;;;;;15.77;11.65;;;;;;;;;;4971396;28;20048;-69
2021/07/18 02:51:39;;;;;;;14.63;10.90;;;;;;;;;;4972462;28;20035;-72
2021/07/18 02:54:05;;;;;;;15.30;10.57;;;;;;;;;;4971418;28;20030;-70
2021/07/18 02:56:31;;;;;;;11.95;10.32;;;;;;;;;;4967933;28;20118;-73
2021/07/18 02:58:57;;;;;;;12.32;9.93;;;;;;;;;;4971746;28;20023;-69
2021/07/18 03:01:23;;;;;;;12.80;8.77;;;;;;;;;;4971933;28;20050;-72
2021/07/18 03:03:49;;;;;;;11.95;8.85;;;;;;;;;;4971954;28;20031;-69
2021/07/18 03:06:15;;;;;;;12.38;9.18;;;;;;;;;;4971120;28;20477;-71
2021/07/18 03:08:42;;;;;;;10.32;7.95;;;;;;;;;;4971801;28;20027;-73
2021/07/18 03:11:08;;;;;;;11.13;8.88;;;;;;;;;;4972416;28;20030;-73
2021/07/18 03:13:34;;;;;;;9.95;8.10;;;;;;;;;;4976579;28;20151;-70
2021/07/18 03:16:00;;;;;;;8.30;7.40;;;;;;;;;;4974928;28;20114;-69
2021/07/18 03:18:26;;;;;;;8.50;6.90;;;;;;;;;;4974117;28;20031;-69
2021/07/18 03:20:52;;;;;;;8.77;6.80;;;;;;;;;;4974024;28;20031;-73
2021/07/18 03:23:18;;;;;;;11.55;7.60;;;;;;;;;;4972798;28;20488;-71
2021/07/18 03:25:44;;;;;;;9.23;7.28;;;;;;;;;;4974422;28;20485;-72
2021/07/18 03:28:10;;;;;;;8.63;7.72;;;;;;;;;;4974848;28;20031;-69
2021/07/18 03:30:40;;;;;;;10.32;8.32;;;;;;;;;;4975956;28;20031;-73
2021/07/18 03:33:06;;;;;;;8.77;6.75;;;;;;;;;;4976096;28;20090;-72
2021/07/18 03:35:32;;;;;;;10.63;7.63;;;;;;;;;;4975408;28;20392;-69
2021/07/18 03:38:00;;;;;;;9.48;6.75;;;;;;;;;;4965617;28;20129;-70
2021/07/18 03:40:28;;;;;;;9.52;6.80;;;;;;;;;;4974549;28;20027;-72
2021/07/18 03:42:55;;;;;;;10.35;6.95;;;;;;;;;;4975669;28;20466;-73
2021/07/18 03:45:21;;;;;;;11.80;7.00;;;;;;;;;;4975406;28;20031;-73
2021/07/18 03:47:47;;;;;;;11.57;6.70;;;;;;;;;;4973167;28;20050;-73
2021/07/18 03:50:14;;;;;;;9.20;6.28;;;;;;;;;;4972624;28;20035;-75
2021/07/18 03:52:40;;;;;;;9.27;6.75;;;;;;;;;;4972396;28;20300;-73
2021/07/18 03:55:08;;;;;;;10.75;6.65;;;;;;;;;;4972344;28;20453;-72
2021/07/18 03:57:34;;;;;;;9.65;6.85;;;;;;;;;;4971393;28;20077;-72
2021/07/18 04:00:04;;;;;;;10.02;6.30;;;;;;;;;;4974194;28;20388;-69
2021/07/18 04:02:30;;;;;;;9.50;6.55;;;;;;;;;;4974793;28;20022;-72
2021/07/18 04:04:56;;;;;;;8.70;6.70;;;;;;;;;;4970935;28;20129;-73
2021/07/18 04:07:22;;;;;;;9.27;6.45;;;;;;;;;;4962036;28;20113;-72
2021/07/18 04:09:48;;;;;;;8.43;6.38;;;;;;;;;;4974163;28;20035;-69
2021/07/18 04:12:14;;;;;;;7.93;6.05;;;;;;;;;;4973014;28;20041;-70
2021/07/18 04:14:41;;;;;;;9.65;6.28;;;;;;;;;;4971656;28;20061;-71
2021/07/18 04:17:07;;;;;;;10.05;6.38;;;;;;;;;;4973169;28;20393;-73
2021/07/18 04:19:33;;;;;;;8.90;6.40;;;;;;;;;;4967183;28;20034;-73
2021/07/18 04:21:59;;;;;;;9.63;6.13;;;;;;;;;;4974422;28;20027;-69
2021/07/18 04:24:27;;;;;;;11.85;6.28;;;;;;;;;;4973391;28;20026;-72
2021/07/18 04:26:54;;;;;;;9.50;6.00;;;;;;;;;;4974032;28;20445;-73
2021/07/18 04:29:20;;;;;;;13.07;6.50;;;;;;;;;;4974192;28;20037;-71
2021/07/18 04:31:48;;;;;;;8.10;6.70;;;;;;;;;;4973614;28;20027;-73
2021/07/18 04:34:14;;;;;;;10.15;6.75;;;;;;;;;;4969408;28;20409;-72
2021/07/18 04:36:40;;;;;;;12.15;7.80;;;;;;;;;;4974516;28;20485;-73
2021/07/18 04:39:06;;;;;;;9.80;7.18;;;;;;;;;;4969524;28;20081;-69
2021/07/18 04:41:33;;;;;;;12.45;7.93;;;;;;;;;;4971555;28;20031;-69
2021/07/18 04:43:59;;;;;;;8.20;6.90;;;;;;;;;;4969463;28;20098;-72
2021/07/18 04:46:25;;;;;;;12.27;7.70;;;;;;;;;;4970587;28;20106;-69
2021/07/18 04:48:51;;;;;;;11.90;7.97;;;;;;;;;;4973684;28;20023;-70
2021/07/18 04:51:17;;;;;;;11.85;8.07;;;;;;;;;;4973264;28;20030;-72
2021/07/18 04:53:43;;;;;;;16.48;9.10;;;;;;;;;;4969564;28;20059;-73
2021/07/18 04:56:09;;;;;;;14.05;9.13;;;;;;;;;;4968322;28;20038;-73
2021/07/18 04:58:37;;;;;;;12.93;8.23;;;;;;;;;;4967828;28;20019;-70
2021/07/18 05:01:03;;;;;;;12.43;8.90;;;;;;;;;;4961706;28;20046;-72
2021/07/18 05:03:29;;;;;;;12.45;8.40;;;;;;;;;;4960784;28;20106;-68
2021/07/18 05:05:55;;;;;;;11.77;8.43;;;;;;;;;;4963616;28;20525;-73
2021/07/18 05:08:21;;;;;;;11.43;9.18;;;;;;;;;;4969608;28;20468;-73
2021/07/18 05:10:47;;;;;;;12.52;9.05;;;;;;;;;;4971696;28;20444;-73
2021/07/18 05:13:13;;;;;;;9.70;8.52;;;;;;;;;;4967842;28;20026;-71
2021/07/18 05:15:39;;;;;;;11.38;9.18;;;;;;;;;;4969577;28;20053;-73
2021/07/18 05:18:15;;;;;;;12.15;9.25;;;;;;;;;;4966000;28;20035;-72
2021/07/18 05:20:42;;;;;;;10.82;9.15;;;;;;;;;;4969893;28;20023;-70
2021/07/18 05:23:09;;;;;;;13.10;9.80;;;;;;;;;;4967889;28;20037;-73
2021/07/18 05:25:35;;;;;;;12.45;9.55;;;;;;;;;;4970400;28;20557;-69
2021/07/18 05:28:01;;;;;;;12.82;9.77;;;;;;;;;;4969830;28;20477;-69
2021/07/18 05:30:27;;;;;;;12.65;9.73;;;;;;;;;;4973212;28;20409;-71
2021/07/18 05:32:53;;;;;;;11.32;10.07;;;;;;;;;;4972250;28;20027;-72
2021/07/18 05:35:27;;;;;;;13.48;10.50;;;;;;;;;;4970930;28;20019;-71
2021/07/18 05:37:53;;;;;;;13.23;10.50;;;;;;;;;;4965238;28;20050;-76
2021/07/18 05:40:19;;;;;;;13.35;10.77;;;;;;;;;;4959524;28;20070;-75
2021/07/18 05:42:45;;;;;;;13.88;10.60;;;;;;;;;;4971680;28;20031;-76
2021/07/18 05:45:13;;;;;;;11.30;9.55;;;;;;;;;;4966048;28;20030;-77
2021/07/18 05:47:41;;;;;;;10.80;9.73;;;;;;;;;;4955051;28;20393;-77
2021/07/18 05:50:08;;;;;;;11.32;9.75;;;;;;;;;;4971550;28;20038;-72
2021/07/18 05:52:34;;;;;;;13.18;10.80;;;;;;;;;;4972464;28;20728;-70
2021/07/18 05:55:00;;;;;;;12.48;10.25;;;;;;;;;;4970665;28;20023;-70
2021/07/18 05:57:27;;;;;;;12.40;11.10;;;;;;;;;;4973169;28;20034;-70
2021/07/18 05:59:53;;;;;;;11.80;10.55;;;;;;;;;;4972422;28;20031;-70
2021/07/18 06:02:25;;;;;;;13.43;10.02;;;;;;;;;;4966031;28;20903;-74
2021/07/18 06:04:51;;;;;;;11.88;10.30;;;;;;;;;;4953338;28;20416;-73
2021/07/18 06:07:18;;;;;;;13.50;10.80;;;;;;;;;;4970097;28;20023;-74
2021/07/18 06:09:46;;;;;;;12.00;10.13;;;;;;;;;;4954582;28;20030;-72
2021/07/18 06:12:12;;;;;;;12.18;10.40;;;;;;;;;;4953850;28;20701;-77
2021/07/18 06:14:39;;;;;;;12.38;9.90;;;;;;;;;;4971886;28;20468;-76
2021/07/18 06:17:05;;;;;;;11.15;10.05;;;;;;;;;;4968315;28;20046;-72
2021/07/18 06:19:32;;;;;;;11.20;10.10;;;;;;;;;;4965008;28;20053;-78
2021/07/18 06:21:58;;;;;;;13.02;10.30;;;;;;;;;;4971632;28;20106;-70
2021/07/18 06:24:24;;;;;;;11.10;10.07;;;;;;;;;;4969867;28;20449;-75
2021/07/18 06:26:50;;;;;;;13.30;10.48;;;;;;;;;;4972828;28;20023;-71
2021/07/18 06:29:16;;;;;;;10.90;9.40;;;;;;;;;;4972160;28;20122;-70
2021/07/18 06:31:42;;;;;;;11.30;10.15;;;;;;;;;;4969014;28;20027;-71
2021/07/18 06:34:08;;;;;;;12.38;10.23;;;;;;;;;;4972863;28;20548;-71
2021/07/18 06:36:34;;;;;;;11.32;10.13;;;;;;;;;;4978953;28;20081;-76
2021/07/18 06:39:01;;;;;;;10.82;9.70;;;;;;;;;;4972259;28;20101;-72
2021/07/18 06:41:27;;;;;;;10.88;9.77;;;;;;;;;;4970573;28;20069;-69
2021/07/18 06:43:53;;;;;;;14.93;10.18;;;;;;;;;;4973152;28;20086;-70
2021/07/18 06:46:19;;;;;;;11.82;8.40;;;;;;;;;;4972177;28;20038;-70
2021/07/18 06:48:45;;;;;;;11.02;7.90;;;;;;;;;;4974048;28;20023;-71
2021/07/18 06:51:11;;;;;;;9.35;7.20;;;;;;;;;;4971928;28;20477;-70
2021/07/18 06:53:38;;;;;;;10.13;7.72;;;;;;;;;;4971654;28;20247;-73
2021/07/18 06:56:04;;;;;;;15.20;8.00;;;;;;;;;;4970633;28;20045;-71
2021/07/18 06:58:30;;;;;;;10.73;7.45;;;;;;;;;;4971418;28;20015;-72
2021/07/18 07:00:56;;;;;;;15.40;7.93;;;;;;;;;;4971461;28;20157;-71
2021/07/18 07:03:22;;;;;;;12.68;7.45;;;;;;;;;;4974176;28;20034;-67
2021/07/18 07:05:48;;;;;;;16.58;8.02;;;;;;;;;;4974608;28;20054;-69
2021/07/18 07:08:14;;;;;;;6.50;5.57;;;;;;;;;;4971274;28;20090;-68
2021/07/18 07:10:41;;;;;;;7.45;6.40;;;;;;;;;;4972767;28;20027;-71
2021/07/18 07:13:07;;;;;;;8.50;6.82;;;;;;;;;;4972444;28;20507;-70
2021/07/18 07:15:35;;;;;;;10.50;6.78;;;;;;;;;;4971749;28;20034;-73
2021/07/18 07:18:03;;;;;;;8.48;6.00;;;;;;;;;;4971417;28;20065;-73
2021/07/18 07:20:29;;;;;;;7.60;5.43;;;;;;;;;;4972492;28;20026;-73
2021/07/18 07:22:55;;;;;;;8.40;5.70;;;;;;;;;;4972457;28;20508;-77
2021/07/18 07:37:16;;;;;;;12.25;6.57;;;;;;;;;;5076055;23;20137;-75
2021/07/18 07:39:42;;;;;;;10.60;6.68;;;;;;;;;;4955226;28;20113;-73
2021/07/18 07:42:08;;;;;;;12.27;7.95;;;;;;;;;;4955491;28;20029;-73
2021/07/18 07:44:35;;;;;;;12.73;7.75;;;;;;;;;;4973065;28;20031;-71
2021/07/18 07:47:01;;;;;;;9.50;6.30;;;;;;;;;;4977938;28;20023;-73
2021/07/18 07:49:27;;;;;;;8.35;5.35;;;;;;;;;;4959300;28;20071;-76
2021/07/18 07:51:53;;;;;;;10.25;6.18;;;;;;;;;;4967484;28;20516;-73
2021/07/18 07:54:22;;;;;;;10.43;5.80;;;;;;;;;;4952518;28;20487;-82
2021/07/18 07:56:48;;;;;;;7.97;5.00;;;;;;;;;;4976094;28;20089;-74
2021/07/18 07:59:14;;;;;;;8.05;5.53;;;;;;;;;;4960775;28;20050;-75
2021/07/18 08:01:40;;;;;;;8.50;5.60;;;;;;;;;;4975089;28;20039;-72
2021/07/18 08:04:06;;;;;;;6.95;5.95;;;;;;;;;;4982447;28;20033;-71
2021/07/18 08:06:32;;;;;;;6.55;4.97;;;;;;;;;;4969023;28;20034;-71
2021/07/18 08:08:58;;;;;;;7.82;5.28;;;;;;;;;;4969504;28;20034;-71
2021/07/18 08:11:24;;;;;;;10.88;5.50;;;;;;;;;;4952113;29;20485;-71
2021/07/18 08:13:50;;;;;;;7.32;5.40;;;;;;;;;;4971691;28;20035;-72
2021/07/18 08:16:16;;;;;;;8.32;4.25;;;;;;;;;;4970620;28;20544;-73
2021/07/18 08:18:42;;;;;;;7.15;5.18;;;;;;;;;;4973067;28;20119;-73
2021/07/18 08:21:09;;;;;;;7.30;4.70;;;;;;;;;;4966777;28;20031;-74
2021/07/18 08:23:35;;;;;;;7.88;4.97;;;;;;;;;;4971702;28;20023;-74
2021/07/18 08:41:50;;;;;;;9.35;5.80;;;;;;;;;;5129704;27;20375;-73
2021/07/18 08:44:17;;;;;;;6.55;5.72;;;;;;;;;;5116740;28;20051;-72
2021/07/18 08:46:43;;;;;;;11.00;6.00;;;;;;;;;;5130353;27;20019;-73
2021/07/18 08:49:09;;;;;;;7.90;5.93;;;;;;;;;;5115570;27;20548;-73
2021/07/18 08:51:36;;;;;;;10.48;5.78;;;;;;;;;;5130343;27;20035;-74
2021/07/18 08:54:02;;;;;;;6.15;4.85;;;;;;;;;;5129150;27;20106;-74
2021/07/18 08:56:31;;;;;;;9.23;5.45;;;;;;;;;;5116939;28;20096;-73
2021/07/18 08:58:58;;;;;;;7.22;5.25;;;;;;;;;;5128571;27;20020;-73
2021/07/18 09:01:24;;;;;;;11.75;4.97;;;;;;;;;;5129873;27;20023;-73
2021/07/18 09:03:50;;;;;;;8.32;5.22;;;;;;;;;;5130053;27;20114;-74
2021/07/18 09:06:16;;;;;;;7.63;4.95;;;;;;;;;;5115188;27;20511;-73
2021/07/18 09:08:50;;;;;;;7.15;4.95;;;;;;;;;;5130045;27;20015;-74
2021/07/18 09:11:18;;;;;;;7.32;5.03;;;;;;;;;;5129468;27;20040;-73
2021/07/18 09:13:54;;;;;;;7.40;5.10;;;;;;;;;;5130002;27;20364;-72
2021/07/18 09:16:25;;;;;;;7.45;5.10;;;;;;;;;;5135627;27;20037;-75
2021/07/18 09:18:52;;;;;;;7.75;5.57;;;;;;;;;;5117455;27;20038;-76
2021/07/18 09:21:18;;;;;;;6.25;4.63;;;;;;;;;;5121009;27;20026;-74
2021/07/18 09:23:44;;;;;;;8.45;4.47;;;;;;;;;;5125465;27;20034;-72
2021/07/18 09:26:20;;;;;;;8.32;4.70;;;;;;;;;;5122471;28;20023;-73
2021/07/18 09:28:49;;;;;;;9.30;4.72;;;;;;;;;;5112164;27;20030;-78
2021/07/18 09:31:34;;;;;;;5.43;4.20;;;;;;;;;;5108553;28;20060;-72
2021/07/18 09:34:16;;;;;;;6.38;4.22;;;;;;;;;;5112671;28;20024;-71
2021/07/18 09:36:42;;;;;;;6.88;4.68;;;;;;;;;;5110571;28;20099;-70
2021/07/18 09:39:13;;;;;;;6.30;4.53;;;;;;;;;;5107703;28;20042;-72
2021/07/18 09:41:39;;;;;;;6.40;4.82;;;;;;;;;;5106041;28;20120;-73
2021/07/18 09:44:06;;;;;;;6.45;5.05;;;;;;;;;;5099248;28;20016;-72
2021/07/18 09:46:33;;;;;;;6.80;4.85;;;;;;;;;;5093555;28;20046;-72
2021/07/18 09:49:00;;;;;;;7.18;4.70;;;;;;;;;;5096513;28;20026;-72
2021/07/18 09:51:28;;;;;;;6.85;5.20;;;;;;;;;;5101361;28;20488;-71
2021/07/18 09:54:08;;;;;;;8.05;5.20;;;;;;;;;;5108606;28;20328;-76
2021/07/18 09:56:34;;;;;;;8.13;5.00;;;;;;;;;;5100075;28;20145;-70
2021/07/18 09:59:00;;;;;;;6.07;4.72;;;;;;;;;;5103321;28;20027;-77
2021/07/18 10:01:26;;;;;;;9.68;4.95;;;;;;;;;;5103876;28;20031;-75
2021/07/18 10:03:54;;;;;;;6.47;4.25;;;;;;;;;;5102903;28;20056;-76
2021/07/18 10:06:21;;;;;;;10.00;5.00;;;;;;;;;;5099999;28;20027;-75
2021/07/18 10:08:51;;;;;;;6.25;4.53;;;;;;;;;;5101429;28;20469;-76
2021/07/18 10:11:22;;;;;;;7.20;4.00;;;;;;;;;;5101383;28;20412;-74
2021/07/18 10:13:49;;;;;;;5.28;4.00;;;;;;;;;;5096387;28;20106;-74
2021/07/18 10:16:16;;;;;;;6.00;4.65;;;;;;;;;;5098482;28;20115;-73
2021/07/18 10:18:43;;;;;;;6.85;4.63;;;;;;;;;;5099753;28;20393;-74
2021/07/18 10:21:10;;;;;;;8.18;4.72;;;;;;;;;;5103481;28;20489;-79
2021/07/18 10:23:38;;;;;;;8.95;4.72;;;;;;;;;;5099036;28;20055;-74
2021/07/18 10:26:06;;;;;;;9.80;4.93;;;;;;;;;;5098979;28;20051;-76
2021/07/18 10:28:32;;;;;;;6.35;4.32;;;;;;;;;;5101397;28;20058;-73
2021/07/18 10:31:02;;;;;;;10.35;4.35;;;;;;;;;;5097743;28;20555;-73
2021/07/18 10:33:28;;;;;;;7.05;4.97;;;;;;;;;;5095467;28;20027;-80
2021/07/18 10:35:55;;;;;;;7.63;4.80;;;;;;;;;;5102161;28;20024;-71
2021/07/18 10:38:22;;;;;;;9.90;4.80;;;;;;;;;;5096446;28;20020;-72
2021/07/18 10:40:52;;;;;;;10.40;4.65;;;;;;;;;;5103780;28;20058;-73
2021/07/18 10:43:37;;;;;;;9.25;5.28;;;;;;;;;;5097077;28;20404;-71
2021/07/18 10:46:04;;;;;;;8.43;5.68;;;;;;;;;;5102641;28;20024;-71
2021/07/18 10:48:43;;;;;;;10.98;6.80;;;;;;;;;;5096019;28;20024;-72
2021/07/18 10:51:09;;;;;;;7.38;5.85;;;;;;;;;;5101638;28;20047;-74
2021/07/18 10:53:35;;;;;;;12.13;6.72;;;;;;;;;;5104099;28;20027;-73
2021/07/18 10:56:04;;;;;;;8.65;6.25;;;;;;;;;;5110736;28;20473;-81
2021/07/18 10:58:39;;;;;;;14.07;9.23;;;;;;;;;;5108322;28;20050;-74
2021/07/18 11:01:05;;;;;;;12.70;8.88;;;;;;;;;;5104630;28;20571;-75
2021/07/18 11:03:35;;;;;;;16.27;10.70;;;;;;;;;;5102712;28;20020;-73
2021/07/18 11:06:28;;;;;;;15.05;10.68;;;;;;;;;;5096932;28;20057;-74
2021/07/18 11:09:06;;;;;;;16.10;10.70;;;;;;;;;;5111293;28;20441;-73
2021/07/18 11:11:39;;;;;;;13.40;10.48;;;;;;;;;;5105967;28;20051;-73
2021/07/18 11:14:24;;;;;;;14.48;10.23;;;;;;;;;;5105025;28;20040;-76
2021/07/18 11:16:54;;;;;;;13.88;9.20;;;;;;;;;;5083515;28;20244;-74
2021/07/18 11:19:37;;;;;;;12.30;8.95;;;;;;;;;;5108086;28;20087;-72
2021/07/18 11:22:03;;;;;;;12.52;8.52;;;;;;;;;;5107857;28;20485;-73
2021/07/18 11:24:48;;;;;;;11.02;7.97;;;;;;;;;;5108386;28;20118;-77
2021/07/18 11:27:25;;;;;;;11.82;7.70;;;;;;;;;;5082040;28;20046;-78
2021/07/18 11:29:51;;;;;;;14.18;7.47;;;;;;;;;;5097173;28;20512;-80
2021/07/18 11:32:19;;;;;;;10.70;7.15;;;;;;;;;;5108697;28;20073;-74
2021/07/18 11:34:46;;;;;;;11.77;7.40;;;;;;;;;;5100730;28;20023;-74
2021/07/18 11:37:28;;;;;;;10.63;7.20;;;;;;;;;;5098462;28;20427;-70
2021/07/18 11:40:13;;;;;;;8.95;6.88;;;;;;;;;;5095093;28;20071;-79
2021/07/18 11:42:42;;;;;;;11.68;6.70;;;;;;;;;;5108865;28;20034;-89
2021/07/18 11:45:09;;;;;;;8.20;6.57;;;;;;;;;;5085334;28;20166;-71
2021/07/18 11:47:35;;;;;;;8.73;6.50;;;;;;;;;;5106593;28;20055;-71
2021/07/18 11:50:07;;;;;;;10.40;6.30;;;;;;;;;;5099629;28;20055;-74
2021/07/18 11:52:33;;;;;;;9.57;6.25;;;;;;;;;;5091185;28;20116;-75
2021/07/18 11:54:59;;;;;;;9.48;6.43;;;;;;;;;;5108167;27;20427;-72
2021/07/18 11:57:25;;;;;;;9.07;6.38;;;;;;;;;;5103851;27;20035;-76
2021/07/18 11:59:52;;;;;;;14.70;6.50;;;;;;;;;;5105449;28;20066;-73
2021/07/18 12:02:21;;;;;;;9.82;6.32;;;;;;;;;;5105895;28;20035;-76
2021/07/18 12:04:47;;;;;;;11.18;6.00;;;;;;;;;;5110340;28;20034;-75
2021/07/18 12:07:14;;;;;;;8.15;6.43;;;;;;;;;;5106238;28;20055;-77
2021/07/18 12:09:44;;;;;;;12.63;6.30;;;;;;;;;;5103913;28;20388;-75
2021/07/18 12:12:11;;;;;;;10.10;6.65;;;;;;;;;;5103269;28;20036;-74
2021/07/18 12:14:38;;;;;;;10.00;6.50;;;;;;;;;;5106422;27;20404;-76
2021/07/18 12:17:05;;;;;;;9.95;5.80;;;;;;;;;;5099159;28;20386;-72
2021/07/18 12:19:32;;;;;;;8.10;6.18;;;;;;;;;;5101419;28;20020;-75
2021/07/18 12:21:59;;;;;;;7.25;6.03;;;;;;;;;;5100704;28;20523;-73
2021/07/18 12:24:32;;;;;;;9.43;5.82;;;;;;;;;;5102977;28;20047;-75
2021/07/18 12:26:58;;;;;;;9.23;5.57;;;;;;;;;;5097841;27;20020;-76
2021/07/18 12:29:25;;;;;;;10.00;5.97;;;;;;;;;;5097030;28;20746;-73
2021/07/18 12:31:52;;;;;;;9.45;6.10;;;;;;;;;;5096130;28;20100;-74
2021/07/18 12:34:19;;;;;;;9.27;5.95;;;;;;;;;;5091596;28;20110;-73
2021/07/18 12:36:55;;;;;;;11.65;6.22;;;;;;;;;;5104545;28;20024;-75
2021/07/18 12:39:22;;;;;;;7.35;5.35;;;;;;;;;;5098945;28;20027;-72
2021/07/18 12:41:49;;;;;;;11.13;6.45;;;;;;;;;;5107667;28;20058;-74
2021/07/18 12:44:16;;;;;;;9.30;5.70;;;;;;;;;;5099271;28;20023;-75
2021/07/18 12:46:44;;;;;;;9.30;6.28;;;;;;;;;;5103679;28;20020;-75
2021/07/18 12:49:10;;;;;;;8.65;5.80;;;;;;;;;;5096860;28;20031;-73
2021/07/18 12:51:37;;;;;;;11.40;6.30;;;;;;;;;;5100714;28;20040;-74
2021/07/18 12:54:04;;;;;;;9.65;6.40;;;;;;;;;;5102101;28;20047;-75
2021/07/18 12:56:33;;;;;;;9.45;5.68;;;;;;;;;;5098648;28;20031;-73
2021/07/18 12:58:59;;;;;;;9.27;6.45;;;;;;;;;;5101426;28;20013;-72
2021/07/18 13:01:29;;;;;;;21.50;19.42;;;;;;;;;;5105243;28;20026;-73
2021/07/18 13:04:02;;;;;;;11.48;6.85;;;;;;;;;;5103674;28;20028;-74
2021/07/18 13:06:29;;;;;;;14.57;6.78;;;;;;;;;;5094213;28;20035;-74
2021/07/18 13:08:59;;;;;;;8.68;6.38;;;;;;;;;;5097046;28;20028;-73
2021/07/18 13:11:55;;;;;;;8.02;6.22;;;;;;;;;;5103866;28;20051;-73
2021/07/18 13:14:28;;;;;;;8.07;6.95;;;;;;;;;;5078381;28;20041;-71
2021/07/18 13:17:03;;;;;;;10.90;7.07;;;;;;;;;;5083272;28;20077;-73
2021/07/18 13:19:29;;;;;;;8.55;7.05;;;;;;;;;;5090462;28;20036;-72
2021/07/18 13:22:00;;;;;;;12.23;7.05;;;;;;;;;;5088228;28;20363;-73
2021/07/18 13:24:29;;;;;;;9.32;7.45;;;;;;;;;;5088011;28;20038;-73
2021/07/18 13:27:07;;;;;;;11.93;6.95;;;;;;;;;;5086326;28;20024;-73
2021/07/18 13:29:37;;;;;;;10.80;7.28;;;;;;;;;;5083717;28;20547;-73
2021/07/18 13:32:08;;;;;;;9.57;7.65;;;;;;;;;;5079169;28;20189;-73
2021/07/18 13:34:34;;;;;;;10.20;7.35;;;;;;;;;;5081183;28;20020;-73
2021/07/18 13:37:00;;;;;;;9.63;7.28;;;;;;;;;;5089488;28;20028;-73
2021/07/18 13:39:28;;;;;;;10.70;6.97;;;;;;;;;;5080273;28;20096;-73
2021/07/18 13:42:05;;;;;;;11.68;6.93;;;;;;;;;;5085798;28;20268;-72
2021/07/18 13:44:31;;;;;;;12.40;6.82;;;;;;;;;;5077971;28;20082;-73
2021/07/18 13:46:57;;;;;;;10.90;6.55;;;;;;;;;;5085067;28;20714;-73
2021/07/18 13:49:23;;;;;;;9.95;6.40;;;;;;;;;;5081148;28;20029;-72
2021/07/18 13:51:54;;;;;;;9.20;6.97;;;;;;;;;;5108817;28;20055;-74
2021/07/18 13:54:25;;;;;;;9.10;7.22;;;;;;;;;;5108048;27;20085;-74
2021/07/18 13:56:51;;;;;;;11.35;6.88;;;;;;;;;;5110871;28;20369;-72
2021/07/18 13:59:17;;;;;;;10.55;6.50;;;;;;;;;;5102333;27;20437;-73
2021/07/18 14:01:43;;;;;;;11.13;6.70;;;;;;;;;;5108152;27;20380;-72
2021/07/18 14:04:14;;;;;;;11.95;6.65;;;;;;;;;;5098285;28;20472;-73
2021/07/18 14:06:40;;;;;;;9.00;6.90;;;;;;;;;;5100278;27;20093;-73
2021/07/18 14:09:08;;;;;;;10.60;6.93;;;;;;;;;;5104620;28;20019;-71
2021/07/18 14:11:34;;;;;;;8.45;7.40;;;;;;;;;;5107003;28;20485;-73
2021/07/18 14:14:00;;;;;;;8.60;7.00;;;;;;;;;;5098581;27;20038;-72
2021/07/18 14:16:27;;;;;;;18.02;7.65;;;;;;;;;;5094233;28;20043;-73
2021/07/18 14:18:54;;;;;;;8.75;6.68;;;;;;;;;;5098021;28;20019;-73
2021/07/18 14:21:24;;;;;;;11.43;6.78;;;;;;;;;;5100158;27;20561;-73
2021/07/18 14:23:51;;;;;;;13.93;8.10;;;;;;;;;;5111130;28;20023;-71
2021/07/18 14:26:17;;;;;;;17.08;10.23;;;;;;;;;;5109716;28;20093;-74
2021/07/18 14:28:48;;;;;;;14.48;8.43;;;;;;;;;;5108348;27;20019;-72
2021/07/18 14:31:17;;;;;;;12.77;9.13;;;;;;;;;;5113156;28;20043;-74
2021/07/18 14:33:46;;;;;;;18.98;12.90;;;;;;;;;;5103145;27;20027;-74
2021/07/18 14:36:13;;;;;;;8.00;6.68;;;;;;;;;;5104248;28;20054;-72
2021/07/18 14:38:41;;;;;;;9.93;7.75;;;;;;;;;;5102573;28;20046;-73
2021/07/18 14:41:07;;;;;;;11.18;9.20;;;;;;;;;;5109724;28;20044;-72
2021/07/18 14:43:35;;;;;;;21.17;15.00;;;;;;;;;;5104612;28;20492;-73
2021/07/18 14:46:02;;;;;;;11.27;8.43;;;;;;;;;;5104829;28;20031;-72
2021/07/18 14:48:28;;;;;;;12.45;7.00;;;;;;;;;;5105346;28;20353;-74
2021/07/18 14:50:55;;;;;;;12.00;8.45;;;;;;;;;;5100293;28;20126;-73
2021/07/18 14:53:21;;;;;;;16.67;12.55;;;;;;;;;;5104709;28;20030;-72
2021/07/18 14:55:47;;;;;;;15.60;10.20;;;;;;;;;;5101304;28;20028;-73
2021/07/18 14:58:13;;;;;;;10.35;8.25;;;;;;;;;;5097207;28;20095;-73
2021/07/18 15:00:39;;;;;;;11.02;7.32;;;;;;;;;;5096585;28;20070;-72
2021/07/18 15:03:05;;;;;;;13.60;9.68;;;;;;;;;;5104951;28;20016;-73
2021/07/18 15:05:32;;;;;;;13.77;8.52;;;;;;;;;;5102751;28;20477;-74